Time;durP1;ratioP1;P1;durP2;ratioP2;P2;SDS_P1;SDS_P2;PMS_P1;PMS_P2;Temp;Humidity;BMP_temperature;BMP_pressure;BME280_temperature;BME280_humidity;BME280_pressure;Samples;Min_cycle;Max_cycle;Signal;HPM_P1;HPM_P2
2023/06/12 00:00:51;;;;;;;;;;;22.40;31.40;;;21.75;29.91;101606.03;12253310;19;19915;-80
2023/06/12 00:04:54;;;;;;;;;;;22.40;31.50;;;21.71;29.67;101607.28;12253973;19;19915;-80
2023/06/12 00:08:56;;;;;;;;;;;22.30;31.40;;;21.65;30.14;101613.13;12251391;19;19930;-80
2023/06/12 00:12:58;;;;;;;;;;;22.20;31.40;;;21.58;29.97;101623.47;12249445;19;19926;-81
2023/06/12 00:16:59;;;;;;;;;;;22.20;31.50;;;21.49;30.11;101607.47;12246089;19;19999;-80
2023/06/12 00:21:02;;;;;;;;;;;22.10;31.50;;;21.33;29.87;101607.94;12249123;19;19919;-81
2023/06/12 00:25:04;;;;;;;;;;;22.00;31.50;;;21.25;29.91;101610.41;12252051;19;19930;-81
2023/06/12 00:29:05;;;;;;;;;;;21.90;31.50;;;21.19;30.20;101620.59;12247599;19;20238;-81
2023/06/12 00:33:07;;;;;;;;;;;21.80;31.50;;;21.13;30.12;101621.13;12249723;19;19970;-81
2023/06/12 00:37:12;;;;;;;;;;;21.70;31.60;;;21.06;30.14;101624.44;12249682;19;20289;-81
2023/06/12 00:41:14;;;;;;;;;;;21.60;31.60;;;20.97;30.25;101626.06;12249920;19;19915;-81
2023/06/12 00:45:18;;;;;;;;;;;21.50;31.90;;;20.86;30.04;101626.97;12249904;19;19919;-80
2023/06/12 00:49:20;;;;;;;;;;;21.50;31.60;;;20.72;30.10;101612.19;12249944;19;19946;-80
2023/06/12 00:53:22;;;;;;;;;;;21.40;31.70;;;20.71;30.54;101633.56;12248620;19;19923;-81
2023/06/12 00:57:24;;;;;;;;;;;21.30;31.90;;;20.64;30.39;101632.41;12248325;19;19915;-81
2023/06/12 01:01:26;;;;;;;;;;;21.20;31.80;;;20.52;30.36;101634.22;12247047;19;19926;-80
2023/06/12 01:05:34;;;;;;;;;;;21.10;32.00;;;20.36;30.34;101625.84;12248562;19;19995;-80
2023/06/12 01:10:13;;;;;;;;;;;21.00;31.80;;;20.31;30.20;101626.25;12246483;19;19922;-80
2023/06/12 01:14:17;;;;;;;;;;;20.90;31.80;;;20.18;30.49;101620.25;12242013;19;19923;-80
2023/06/12 01:18:21;;;;;;;;;;;20.90;32.10;;;20.09;30.45;101625.34;12245951;19;19922;-81
2023/06/12 01:22:24;;;;;;;;;;;20.70;32.30;;;19.99;30.59;101627.03;12246017;19;20324;-81
2023/06/12 01:26:44;;;;;;;;;;;20.70;31.90;;;19.90;30.37;101617.16;12243650;19;19926;-80
2023/06/12 01:31:13;;;;;;;;;;;20.60;32.00;;;19.74;30.86;101614.06;12248911;19;19915;-81
2023/06/12 01:35:22;;;;;;;;;;;20.50;32.40;;;19.63;30.58;101620.16;12244851;19;19922;-80
2023/06/12 01:39:25;;;;;;;;;;;20.40;32.10;;;19.58;30.57;101631.16;12243627;19;19941;-81
2023/06/12 01:43:27;;;;;;;;;;;20.30;32.00;;;19.52;30.81;101633.44;12246274;19;19942;-81
2023/06/12 01:47:28;;;;;;;;;;;20.20;32.00;;;19.34;30.78;101604.78;12246608;19;19985;-80
2023/06/12 01:51:30;;;;;;;;;;;20.10;32.10;;;19.37;30.96;101631.03;12245592;19;19929;-80
2023/06/12 01:55:33;;;;;;;;;;;20.00;32.10;;;19.31;31.05;101620.91;12244075;19;20324;-81
2023/06/12 01:59:35;;;;;;;;;;;19.90;32.20;;;19.26;31.16;101627.53;12244023;19;19937;-81
2023/06/12 02:03:39;;;;;;;;;;;19.90;32.10;;;19.22;30.90;101616.31;12246642;19;19919;-80
2023/06/12 02:07:40;;;;;;;;;;;19.90;32.10;;;19.15;31.15;101620.41;12244537;19;19927;-81
2023/06/12 02:11:42;;;;;;;;;;;19.80;32.10;;;19.12;31.04;101631.22;12245691;19;19911;-80
2023/06/12 02:15:45;;;;;;;;;;;19.80;32.10;;;18.99;30.84;101623.41;12249031;19;20249;-80
2023/06/12 02:19:47;;;;;;;;;;;19.70;32.20;;;18.92;31.08;101619.53;12254916;19;19929;-81
2023/06/12 02:23:49;;;;;;;;;;;19.60;32.10;;;18.86;31.14;101620.84;12258380;19;20222;-81
2023/06/12 02:27:54;;;;;;;;;;;19.60;32.10;;;18.75;31.14;101616.34;12253058;19;19986;-81
2023/06/12 02:31:58;;;;;;;;;;;19.50;32.10;;;18.71;31.28;101621.97;12254606;19;19919;-81
2023/06/12 02:36:00;;;;;;;;;;;19.40;32.10;;;18.65;31.39;101625.91;12251231;19;19990;-81
2023/06/12 02:40:04;;;;;;;;;;;19.40;32.10;;;18.57;31.24;101626.47;12252031;19;20270;-81
2023/06/12 02:44:07;;;;;;;;;;;19.30;32.10;;;18.48;31.12;101626.34;12251769;19;19911;-81
2023/06/12 02:48:08;;;;;;;;;;;19.30;32.30;;;18.42;31.24;101626.78;12253010;19;19919;-81
2023/06/12 02:52:13;;;;;;;;;;;19.20;32.20;;;18.37;31.32;101635.06;12257528;19;19918;-81
2023/06/12 02:56:15;;;;;;;;;;;19.10;32.20;;;18.32;31.49;101630.09;12253940;19;20019;-81
2023/06/12 03:00:17;;;;;;;;;;;19.10;32.30;;;18.28;31.59;101635.72;12253729;19;19960;-80
2023/06/12 03:04:21;;;;;;;;;;;19.00;32.30;;;18.23;31.32;101637.88;12255308;19;19927;-81
2023/06/12 03:08:23;;;;;;;;;;;19.00;32.30;;;18.21;31.55;101642.44;12252358;19;19929;-80
2023/06/12 03:12:24;;;;;;;;;;;18.90;32.30;;;18.17;31.68;101636.50;12255675;19;19926;-80
2023/06/12 03:16:30;;;;;;;;;;;18.90;32.40;;;18.10;31.51;101649.34;12251353;19;20322;-80
2023/06/12 03:20:33;;;;;;;;;;;18.80;32.40;;;18.05;31.40;101648.81;12257627;19;20357;-80
2023/06/12 03:24:37;;;;;;;;;;;18.80;32.40;;;17.96;31.43;101641.56;12252583;19;19923;-80
2023/06/12 03:28:38;;;;;;;;;;;18.70;32.40;;;17.85;31.42;101634.41;12248218;19;19922;-80
2023/06/12 03:32:40;;;;;;;;;;;18.70;32.50;;;17.79;31.58;101636.63;12252303;19;20344;-81
2023/06/12 03:36:43;;;;;;;;;;;18.60;32.50;;;17.67;31.69;101619.81;12250458;19;19934;-80
2023/06/12 03:40:49;;;;;;;;;;;18.60;32.60;;;17.79;31.65;101644.53;12252775;19;19926;-80
2023/06/12 03:44:51;;;;;;;;;;;18.50;32.60;;;17.69;31.84;101634.59;12253527;19;19918;-80
2023/06/12 03:48:53;;;;;;;;;;;18.50;32.70;;;17.72;31.82;101635.34;12251263;19;19911;-80
2023/06/12 03:52:56;;;;;;;;;;;18.50;32.80;;;17.77;31.89;101649.06;12253399;19;19940;-80
2023/06/12 03:56:58;;;;;;;;;;;18.60;32.90;;;17.78;32.00;101648.13;12246811;19;19951;-80
2023/06/12 04:00:59;;;;;;;;;;;18.60;32.80;;;17.78;31.72;101648.13;12234616;19;19922;-80
2023/06/12 04:05:01;;;;;;;;;;;18.60;32.90;;;17.80;32.05;101656.81;12252424;19;19917;-80
2023/06/12 04:09:02;;;;;;;;;;;18.60;33.00;;;17.76;31.95;101650.03;12250647;19;19914;-80
2023/06/12 04:13:04;;;;;;;;;;;18.60;33.00;;;17.80;32.12;101656.81;12252668;19;19907;-80
2023/06/12 04:17:06;;;;;;;;;;;18.50;33.00;;;17.79;32.21;101663.03;12247571;19;19927;-81
2023/06/12 04:21:08;;;;;;;;;;;18.60;33.20;;;17.76;32.02;101668.50;12250043;19;19923;-81
2023/06/12 04:25:10;;;;;;;;;;;18.60;33.10;;;17.69;32.28;101668.94;12250766;19;19925;-80
2023/06/12 04:29:12;;;;;;;;;;;18.60;33.20;;;17.72;32.22;101667.06;12237699;19;19919;-80
2023/06/12 04:33:14;;;;;;;;;;;18.60;33.30;;;17.72;32.04;101664.41;12243070;19;19918;-81
2023/06/12 04:37:18;;;;;;;;;;;18.60;33.30;;;17.79;32.38;101670.97;12252508;19;19922;-81
2023/06/12 04:41:24;;;;;;;;;;;18.60;33.60;;;17.77;32.36;101667.56;12246762;19;19943;-80
2023/06/12 04:45:26;;;;;;;;;;;18.70;33.90;;;17.87;32.25;101673.91;12243090;19;19925;-81
2023/06/12 04:49:29;;;;;;;;;;;18.70;34.00;;;17.92;32.36;101675.28;12245237;19;19926;-80
2023/06/12 04:53:30;;;;;;;;;;;18.80;33.90;;;18.08;32.63;101685.59;12250115;19;20118;-81
2023/06/12 04:57:32;;;;;;;;;;;18.90;34.20;;;18.23;32.45;101685.47;12248161;19;19952;-80
2023/06/12 05:01:34;;;;;;;;;;;19.00;33.90;;;18.37;32.76;101682.66;12248080;19;19951;-81
2023/06/12 05:05:36;;;;;;;;;;;19.20;34.40;;;18.48;32.75;101672.13;12249142;19;20559;-80
2023/06/12 05:09:38;;;;;;;;;;;19.40;34.00;;;18.51;32.62;101647.25;12246530;19;20012;-81
2023/06/12 05:13:39;;;;;;;;;;;19.50;33.80;;;18.79;32.62;101676.06;12247172;19;19919;-80
2023/06/12 05:17:42;;;;;;;;;;;19.70;33.90;;;18.91;32.49;101670.78;12243945;19;19935;-81
2023/06/12 05:21:43;;;;;;;;;;;19.80;33.60;;;19.07;32.91;101671.31;12247449;19;19966;-80
2023/06/12 05:25:46;;;;;;;;;;;20.00;33.30;;;19.13;32.74;101654.94;12248010;19;19918;-80
2023/06/12 05:29:47;;;;;;;;;;;20.20;33.90;;;19.28;32.81;101663.53;12247063;19;19932;-81
2023/06/12 05:33:49;;;;;;;;;;;20.30;34.10;;;19.49;32.77;101670.75;12248302;19;19922;-81
2023/06/12 05:37:51;;;;;;;;;;;20.50;34.10;;;19.66;32.53;101680.94;12251998;19;19923;-81
2023/06/12 05:41:52;;;;;;;;;;;20.60;33.90;;;19.79;32.77;101678.97;12250608;19;19919;-81
2023/06/12 05:45:54;;;;;;;;;;;20.80;33.70;;;19.98;32.61;101683.69;12253008;19;20023;-81
2023/06/12 05:49:56;;;;;;;;;;;21.00;33.70;;;20.16;32.70;101680.53;12244126;19;20337;-81
2023/06/12 05:53:57;;;;;;;;;;;21.10;33.30;;;20.18;33.00;101655.56;12241963;19;19918;-82
2023/06/12 05:57:59;;;;;;;;;;;21.30;33.40;;;20.49;33.07;101674.28;12249998;19;19914;-82
2023/06/12 06:02:00;;;;;;;;;;;21.50;33.30;;;20.63;33.04;101665.22;12256078;19;19933;-83
2023/06/12 06:06:05;;;;;;;;;;;21.80;33.50;;;20.94;32.91;101677.63;12250936;19;19926;-82
2023/06/12 06:10:08;;;;;;;;;;;22.00;33.30;;;21.13;32.91;101682.22;12247545;19;19971;-82
2023/06/12 06:14:10;;;;;;;;;;;22.20;33.20;;;21.33;32.46;101687.63;12247760;19;20341;-81
2023/06/12 06:18:13;;;;;;;;;;;22.40;33.30;;;21.55;32.97;101690.19;12249265;19;20347;-81
2023/06/12 06:22:17;;;;;;;;;;;22.60;33.10;;;21.72;32.75;101685.22;12254184;19;20240;-82
2023/06/12 06:26:19;;;;;;;;;;;22.80;33.20;;;21.98;33.01;101699.75;12250776;19;19932;-81
2023/06/12 06:30:21;;;;;;;;;;;23.00;33.30;;;21.97;32.74;101671.44;12252300;19;20269;-82
2023/06/12 06:34:22;;;;;;;;;;;23.20;33.00;;;22.23;32.44;101689.59;12253859;19;19919;-81
2023/06/12 06:38:24;;;;;;;;;;;23.40;32.90;;;22.44;32.75;101706.31;12251501;19;20322;-81
2023/06/12 06:42:28;;;;;;;;;;;23.50;32.80;;;22.60;32.71;101697.78;12245879;19;19926;-81
2023/06/12 06:46:38;;;;;;;;;;;23.70;32.70;;;22.82;32.78;101707.31;12245567;19;19919;-81
2023/06/12 06:50:41;;;;;;;;;;;23.90;32.70;;;22.86;32.75;101692.72;12246831;19;19930;-80
2023/06/12 06:54:44;;;;;;;;;;;24.10;32.70;;;23.14;32.63;101703.50;12243902;19;20344;-80
2023/06/12 06:58:46;;;;;;;;;;;24.30;32.70;;;23.29;32.45;101704.75;12244713;19;19926;-81
2023/06/12 07:02:49;;;;;;;;;;;24.40;32.70;;;23.49;32.48;101702.03;12253170;19;19942;-81
2023/06/12 07:06:52;;;;;;;;;;;24.60;32.60;;;23.56;32.63;101703.97;12257526;19;19910;-81
2023/06/12 07:10:55;;;;;;;;;;;24.70;32.30;;;23.68;32.24;101709.13;12257158;19;19985;-81
2023/06/12 07:14:58;;;;;;;;;;;24.80;32.30;;;23.88;32.27;101709.94;12253694;19;19911;-80
2023/06/12 07:19:01;;;;;;;;;;;24.90;32.40;;;24.02;32.13;101709.41;12254154;19;19914;-81
2023/06/12 07:23:03;;;;;;;;;;;25.10;32.20;;;24.13;32.23;101711.06;12254552;19;19918;-81
2023/06/12 07:27:05;;;;;;;;;;;25.20;32.10;;;24.34;32.22;101708.13;12258022;19;19919;-81
2023/06/12 07:31:06;;;;;;;;;;;25.40;32.20;;;24.54;32.07;101704.34;12256114;19;19931;-81
2023/06/12 07:35:08;;;;;;;;;;;25.60;31.80;;;24.72;32.43;101707.00;12255621;19;19914;-81
2023/06/12 07:39:10;;;;;;;;;;;25.80;32.10;;;24.92;32.18;101713.88;12254879;19;19927;-82
2023/06/12 07:43:12;;;;;;;;;;;26.00;32.00;;;25.09;32.03;101709.50;12255588;19;19927;-80
2023/06/12 07:47:14;;;;;;;;;;;26.20;31.50;;;25.24;32.24;101706.28;12253941;19;19915;-81
2023/06/12 07:51:16;;;;;;;;;;;26.30;31.60;;;25.37;31.73;101701.34;12253969;19;20284;-81
2023/06/12 07:55:18;;;;;;;;;;;26.50;30.90;;;25.52;31.81;101699.78;12251482;19;19911;-81
2023/06/12 07:59:20;;;;;;;;;;;26.60;31.10;;;25.65;31.67;101691.28;12249551;19;20004;-81
2023/06/12 08:03:30;;;;;;;;;;;26.70;30.70;;;25.79;31.76;101688.03;12254560;19;19919;-80
2023/06/12 08:07:33;;;;;;;;;;;26.80;29.70;;;25.92;31.29;101700.97;12250437;19;20265;-81
2023/06/12 08:11:36;;;;;;;;;;;26.90;30.80;;;26.11;31.11;101696.34;12247006;19;22541;-81
2023/06/12 08:15:38;;;;;;;;;;;27.10;30.00;;;26.20;31.01;101676.66;12244501;19;19982;-81
2023/06/12 08:19:43;;;;;;;;;;;27.30;31.00;;;26.34;30.95;101673.31;12248414;19;19986;-81
2023/06/12 08:23:45;;;;;;;;;;;27.40;30.40;;;26.53;31.30;101664.16;12251412;19;19918;-80
2023/06/12 08:27:48;;;;;;;;;;;27.60;30.20;;;26.72;30.80;101665.66;12248982;19;19922;-81
2023/06/12 08:31:50;;;;;;;;;;;27.80;30.60;;;26.83;30.83;101673.38;12248481;19;19923;-80
2023/06/12 08:35:51;;;;;;;;;;;27.90;28.50;;;26.86;30.59;101669.50;12249871;19;19970;-81
2023/06/12 08:39:53;;;;;;;;;;;27.90;29.30;;;26.79;30.30;101657.78;12252111;19;19974;-82
2023/06/12 08:43:59;;;;;;;;;;;27.90;29.10;;;26.84;30.41;101658.97;12248701;19;20339;-82
2023/06/12 08:48:11;;;;;;;;;;;27.90;28.70;;;27.03;30.27;101668.50;12250927;19;20261;-82
2023/06/12 08:52:12;;;;;;;;;;;28.00;29.60;;;27.10;30.21;101672.16;12260138;19;19919;-84
2023/06/12 08:56:14;;;;;;;;;;;28.10;30.00;;;27.18;29.78;101662.47;12254930;19;20353;-84
2023/06/12 09:00:17;;;;;;;;;;;28.20;29.50;;;27.33;29.91;101663.44;12255487;19;20252;-84
2023/06/12 09:04:37;;;;;;;;;;;28.30;29.50;;;27.24;29.75;101643.84;12258610;19;19927;-84
2023/06/12 09:08:39;;;;;;;;;;;28.40;30.00;;;27.46;29.85;101682.50;12256652;19;19915;-84
2023/06/12 09:12:43;;;;;;;;;;;28.40;30.00;;;27.49;29.80;101674.13;12255370;19;19939;-84
2023/06/12 09:16:47;;;;;;;;;;;28.50;30.00;;;27.38;29.76;101649.50;12250781;19;20291;-84
2023/06/12 09:20:49;;;;;;;;;;;28.50;30.30;;;27.51;29.86;101669.41;12253910;19;19919;-84
2023/06/12 09:24:51;;;;;;;;;;;28.50;30.00;;;27.47;29.66;101664.56;12255620;19;19915;-83
2023/06/12 09:28:53;;;;;;;;;;;28.50;29.80;;;27.55;29.80;101677.97;12249252;19;19926;-83
2023/06/12 09:32:55;;;;;;;;;;;28.50;30.00;;;27.35;29.76;101648.84;12249516;19;19915;-84
2023/06/12 09:36:58;;;;;;;;;;;28.50;30.10;;;27.64;29.63;101687.66;12245553;19;19922;-84
2023/06/12 09:41:04;;;;;;;;;;;28.50;30.70;;;27.69;29.73;101689.81;12249750;19;19919;-84
2023/06/12 09:45:14;;;;;;;;;;;28.50;30.00;;;27.68;29.57;101667.50;12250241;19;19911;-84
2023/06/12 09:49:19;;;;;;;;;;;28.60;30.20;;;27.61;29.35;101655.78;12248182;19;19923;-84
2023/06/12 09:53:22;;;;;;;;;;;28.60;30.30;;;27.67;29.41;101663.13;12248530;19;19961;-83
2023/06/12 09:57:23;;;;;;;;;;;28.60;30.40;;;27.48;29.50;101644.78;12245667;19;19935;-83
2023/06/12 10:01:26;;;;;;;;;;;28.50;30.50;;;27.61;29.58;101665.69;12247564;19;19918;-85
2023/06/12 10:05:35;;;;;;;;;;;28.50;30.40;;;27.47;29.81;101645.78;12247889;19;19930;-84
2023/06/12 10:09:37;;;;;;;;;;;28.50;29.60;;;27.38;29.52;101644.97;12245532;19;19922;-84
2023/06/12 10:13:39;;;;;;;;;;;28.40;29.60;;;27.29;29.50;101644.16;12243895;19;20440;-84
2023/06/12 10:17:41;;;;;;;;;;;28.30;29.70;;;27.36;29.46;101663.09;12247270;19;20347;-84
2023/06/12 10:21:43;;;;;;;;;;;28.20;29.30;;;27.27;29.40;101642.66;12245444;19;19946;-85
2023/06/12 10:25:46;;;;;;;;;;;28.20;29.80;;;27.31;29.33;101644.84;12246247;19;19927;-85
2023/06/12 10:29:55;;;;;;;;;;;28.10;29.50;;;27.18;29.39;101612.34;12243662;19;19918;-85
2023/06/12 10:34:00;;;;;;;;;;;28.10;29.80;;;27.44;29.37;101638.09;12246435;19;19923;-84
2023/06/12 10:38:02;;;;;;;;;;;28.10;29.60;;;27.44;29.19;101640.78;12253048;19;20253;-84
2023/06/12 10:42:06;;;;;;;;;;;28.20;30.00;;;27.43;29.37;101626.50;12257775;19;20014;-84
2023/06/12 10:46:11;;;;;;;;;;;28.30;30.00;;;27.52;29.28;101630.00;12260591;19;19929;-84
2023/06/12 10:50:13;;;;;;;;;;;28.30;30.00;;;27.55;29.08;101618.94;12254371;19;20341;-84
2023/06/12 10:54:15;;;;;;;;;;;28.40;30.20;;;27.67;29.56;101616.69;12256891;19;19919;-84
2023/06/12 10:58:21;;;;;;;;;;;28.40;30.00;;;27.78;29.30;101621.66;12257169;19;19923;-83
2023/06/12 11:02:22;;;;;;;;;;;28.60;30.20;;;27.79;29.00;101621.50;12255461;19;19978;-84
2023/06/12 11:06:25;;;;;;;;;;;28.60;29.60;;;27.78;29.05;101624.34;12258669;19;20342;-84
2023/06/12 11:10:27;;;;;;;;;;;28.60;29.70;;;27.67;29.48;101593.34;12253408;19;19911;-84
2023/06/12 11:14:31;;;;;;;;;;;28.60;30.50;;;27.87;29.42;101609.03;12254935;19;19926;-84
2023/06/12 11:18:33;;;;;;;;;;;28.70;29.70;;;27.93;29.03;101587.72;12256740;19;19911;-84
2023/06/12 11:22:34;;;;;;;;;;;28.70;29.70;;;28.10;29.01;101593.78;12257340;19;20687;-84
2023/06/12 11:26:36;;;;;;;;;;;28.80;29.90;;;28.01;29.04;101559.97;12255812;19;19930;-83
2023/06/12 11:30:40;;;;;;;;;;;28.90;29.90;;;28.28;28.94;101595.34;12257093;19;19917;-84
2023/06/12 11:34:41;;;;;;;;;;;29.00;29.50;;;28.29;28.96;101573.66;12254732;19;19919;-84
2023/06/12 11:38:43;;;;;;;;;;;29.10;29.80;;;28.30;28.40;101566.44;12252652;19;19990;-84
2023/06/12 11:42:45;;;;;;;;;;;29.10;28.90;;;28.39;28.46;101576.13;12253532;19;20325;-84
2023/06/12 11:46:46;;;;;;;;;;;29.10;29.10;;;28.34;28.68;101570.44;12254754;19;19939;-84
2023/06/12 11:50:52;;;;;;;;;;;29.20;29.40;;;28.46;28.59;101574.38;12254182;19;19915;-84
2023/06/12 11:55:04;;;;;;;;;;;29.20;28.70;;;28.47;28.66;101567.19;12253316;19;20337;-84
2023/06/12 11:59:06;;;;;;;;;;;29.30;28.60;;;28.50;28.50;101567.66;12250548;19;19930;-84
2023/06/12 12:03:13;;;;;;;;;;;29.30;29.40;;;28.59;28.48;101553.09;12253569;19;20389;-84
2023/06/12 12:07:14;;;;;;;;;;;29.40;29.60;;;28.74;28.38;101561.19;12251673;19;20267;-84
2023/06/12 12:11:18;;;;;;;;;;;29.50;29.60;;;28.78;28.42;101550.91;12251350;19;19923;-84
2023/06/12 12:15:23;;;;;;;;;;;29.60;29.30;;;28.78;27.97;101545.53;12251954;19;19935;-84
2023/06/12 12:19:29;;;;;;;;;;;29.60;28.90;;;28.81;27.76;101550.53;12244951;19;19919;-84
2023/06/12 12:23:31;;;;;;;;;;;29.60;28.20;;;28.79;27.96;101541.84;12250055;19;19936;-84
2023/06/12 12:27:33;;;;;;;;;;;29.60;28.60;;;28.78;28.14;101535.59;12251301;19;20244;-84
2023/06/12 12:31:36;;;;;;;;;;;29.60;28.90;;;28.86;27.71;101542.75;12250132;19;19923;-84
2023/06/12 12:35:37;;;;;;;;;;;29.70;29.30;;;28.89;27.60;101548.59;12250926;19;19919;-84
2023/06/12 12:39:39;;;;;;;;;;;29.70;28.90;;;28.76;28.21;101500.03;12240496;19;19922;-84
2023/06/12 12:43:40;;;;;;;;;;;29.70;29.30;;;29.02;27.69;101522.91;12249585;19;20364;-84
2023/06/12 12:47:48;;;;;;;;;;;29.80;28.20;;;29.13;27.72;101525.13;12245662;19;19924;-84
2023/06/12 12:51:49;;;;;;;;;;;29.90;28.50;;;29.18;27.66;101516.50;12250675;19;19921;-83
2023/06/12 12:55:51;;;;;;;;;;;30.00;28.80;;;29.27;27.56;101518.06;12248941;19;19914;-84
2023/06/12 12:59:52;;;;;;;;;;;30.10;28.30;;;29.38;27.52;101506.81;12245329;19;19926;-83
2023/06/12 13:03:54;;;;;;;;;;;30.10;28.50;;;29.44;27.43;101519.53;12248682;19;19923;-84
2023/06/12 13:07:56;;;;;;;;;;;30.20;28.50;;;29.44;27.39;101505.22;12250350;19;20385;-84
2023/06/12 13:11:58;;;;;;;;;;;30.30;28.20;;;29.48;27.20;101506.50;12248396;19;19937;-84
2023/06/12 13:15:59;;;;;;;;;;;30.30;26.70;;;29.45;27.11;101509.59;12249174;19;19911;-83
2023/06/12 13:20:01;;;;;;;;;;;30.20;27.40;;;29.41;27.20;101506.44;12248428;19;19918;-84
2023/06/12 13:24:02;;;;;;;;;;;30.20;28.20;;;29.29;26.94;101486.41;12251342;19;19919;-85
2023/06/12 13:28:04;;;;;;;;;;;30.20;28.30;;;29.43;27.14;101496.31;12247282;19;19919;-82
2023/06/12 13:32:06;;;;;;;;;;;30.20;27.90;;;29.37;27.05;101477.41;12247044;19;19915;-83
2023/06/12 13:36:08;;;;;;;;;;;30.20;28.70;;;29.48;27.09;101488.50;12249214;19;19915;-83
2023/06/12 13:40:12;;;;;;;;;;;30.30;29.10;;;29.55;27.09;101484.03;12244985;19;19943;-83
2023/06/12 13:44:15;;;;;;;;;;;30.30;28.20;;;29.59;26.84;101491.72;12249230;19;20315;-84
2023/06/12 13:48:16;;;;;;;;;;;30.30;28.00;;;29.60;26.73;101477.22;12247096;19;19940;-84
2023/06/12 13:52:17;;;;;;;;;;;30.30;28.80;;;29.60;26.67;101472.69;12247240;19;20274;-83
2023/06/12 13:56:22;;;;;;;;;;;30.40;27.80;;;29.60;26.70;101475.38;12244216;19;19911;-83
2023/06/12 14:00:26;;;;;;;;;;;30.40;28.30;;;29.54;26.44;101468.03;12246395;19;19927;-84
2023/06/12 14:04:27;;;;;;;;;;;30.40;28.30;;;29.66;26.86;101479.19;12248305;19;20346;-82
2023/06/12 14:08:29;;;;;;;;;;;30.40;28.10;;;29.73;26.41;101477.38;12245896;19;19923;-83
2023/06/12 14:12:33;;;;;;;;;;;30.50;27.60;;;29.75;26.62;101470.78;12244575;19;19946;-84
2023/06/12 14:16:35;;;;;;;;;;;30.50;28.30;;;29.70;26.75;101453.53;12243229;19;19940;-84
2023/06/12 14:20:36;;;;;;;;;;;30.50;27.40;;;29.78;26.59;101461.47;12246418;19;20268;-84
2023/06/12 14:24:38;;;;;;;;;;;30.50;27.40;;;29.78;26.42;101472.25;12249347;19;19975;-83
2023/06/12 14:28:40;;;;;;;;;;;30.50;27.40;;;29.81;26.49;101457.56;12244074;19;19918;-83
2023/06/12 14:32:42;;;;;;;;;;;30.50;28.50;;;29.89;26.85;101462.81;12247396;19;19922;-84
2023/06/12 14:36:43;;;;;;;;;;;30.60;28.40;;;29.94;26.42;101457.69;12241360;19;19940;-83
2023/06/12 14:40:45;;;;;;;;;;;30.60;26.90;;;29.79;26.06;101433.53;12245633;19;19922;-83
2023/06/12 14:44:46;;;;;;;;;;;30.60;27.00;;;29.89;26.17;101455.56;12245968;19;19923;-83
2023/06/12 14:48:48;;;;;;;;;;;30.60;28.00;;;29.94;26.39;101455.00;12243567;19;19926;-84
2023/06/12 14:52:50;;;;;;;;;;;30.60;28.10;;;29.97;26.32;101451.91;12244355;19;19915;-83
2023/06/12 14:56:51;;;;;;;;;;;30.70;28.50;;;30.02;26.14;101456.72;12240271;19;19930;-83
2023/06/12 15:00:53;;;;;;;;;;;30.70;28.50;;;29.96;25.94;101448.38;12248696;19;20704;-83
2023/06/12 15:04:54;;;;;;;;;;;30.70;27.90;;;29.99;26.15;101447.16;12245698;19;20006;-84
2023/06/12 15:08:56;;;;;;;;;;;30.70;27.90;;;30.03;26.16;101450.28;12244830;19;19918;-84
2023/06/12 15:12:58;;;;;;;;;;;30.70;26.70;;;29.97;26.01;101436.59;12244002;19;19923;-84
2023/06/12 15:17:00;;;;;;;;;;;30.70;27.10;;;29.92;25.96;101428.25;12241819;19;19907;-84
2023/06/12 15:21:04;;;;;;;;;;;30.70;27.60;;;30.00;25.82;101438.03;12244431;19;19935;-83
2023/06/12 15:25:06;;;;;;;;;;;30.70;28.30;;;30.02;25.67;101435.16;12254990;19;19919;-84
2023/06/12 15:29:07;;;;;;;;;;;30.70;27.80;;;30.06;25.95;101449.91;12252492;19;19939;-83
2023/06/12 15:33:09;;;;;;;;;;;30.70;26.40;;;29.98;25.99;101435.56;12254898;19;19982;-84
2023/06/12 15:37:15;;;;;;;;;;;30.70;28.10;;;29.95;25.57;101422.47;12254629;19;20337;-83
2023/06/12 15:41:17;;;;;;;;;;;30.70;28.20;;;29.99;25.98;101421.03;12256234;19;19915;-83
2023/06/12 15:45:18;;;;;;;;;;;30.70;27.00;;;30.02;25.57;101435.16;12256621;19;19923;-83
2023/06/12 15:49:20;;;;;;;;;;;30.60;26.50;;;29.95;25.73;101435.13;12254500;19;19911;-83
2023/06/12 15:53:22;;;;;;;;;;;30.60;27.90;;;29.93;25.79;101421.00;12257594;19;20305;-84
2023/06/12 15:57:23;;;;;;;;;;;30.60;28.20;;;30.03;25.40;101423.34;12254258;19;19953;-84
2023/06/12 16:01:25;;;;;;;;;;;30.60;27.60;;;29.94;25.64;101407.34;12258572;19;19966;-83
2023/06/12 16:05:26;;;;;;;;;;;30.60;27.60;;;30.02;25.67;101425.22;12258065;19;19922;-83
2023/06/12 16:09:28;;;;;;;;;;;30.60;27.70;;;29.90;25.79;101414.16;12254889;19;19922;-84
2023/06/12 16:13:30;;;;;;;;;;;30.60;27.10;;;29.85;25.27;101418.47;12250205;19;19915;-84
2023/06/12 16:17:31;;;;;;;;;;;30.50;26.40;;;29.72;25.24;101414.63;12253453;19;19923;-83
2023/06/12 16:21:33;;;;;;;;;;;30.40;26.20;;;29.57;25.24;101411.16;12253930;19;19919;-84
2023/06/12 16:25:34;;;;;;;;;;;30.30;27.10;;;29.50;25.59;101411.09;12251970;19;19914;-86
2023/06/12 16:29:36;;;;;;;;;;;30.20;26.90;;;29.44;25.39;101409.16;12252675;19;19974;-84
2023/06/12 16:33:38;;;;;;;;;;;30.10;27.50;;;29.33;25.09;101389.00;12250883;19;19915;-84
2023/06/12 16:37:39;;;;;;;;;;;30.10;28.00;;;29.37;25.48;101391.28;12250125;19;19915;-84
2023/06/12 16:41:41;;;;;;;;;;;30.00;27.80;;;29.44;25.05;101406.47;12250179;19;20245;-84
2023/06/12 16:45:42;;;;;;;;;;;30.00;27.30;;;29.31;25.37;101379.44;12250391;19;20349;-84
2023/06/12 16:49:44;;;;;;;;;;;30.00;27.80;;;29.39;25.31;101403.53;12248729;19;20257;-84
2023/06/12 16:53:46;;;;;;;;;;;29.90;27.80;;;29.25;25.40;101390.97;12250614;19;19922;-84
2023/06/12 16:57:47;;;;;;;;;;;29.90;27.60;;;29.28;25.26;101388.72;12248717;19;19915;-84
2023/06/12 17:01:48;;;;;;;;;;;29.90;28.00;;;29.29;25.24;101403.00;12247982;19;20335;-84
2023/06/12 17:05:50;;;;;;;;;;;29.90;27.90;;;29.16;25.18;101394.81;12250931;19;19927;-84
2023/06/12 17:09:51;;;;;;;;;;;29.90;28.20;;;29.08;25.19;101393.91;12244388;19;19918;-84
2023/06/12 17:13:56;;;;;;;;;;;29.80;28.10;;;29.09;25.04;101398.25;12249269;19;19982;-84
2023/06/12 17:17:57;;;;;;;;;;;29.70;28.20;;;29.04;25.21;101398.00;12249215;19;20513;-84
2023/06/12 17:21:59;;;;;;;;;;;29.60;27.70;;;28.89;25.11;101391.78;12250587;19;19917;-84
2023/06/12 17:26:01;;;;;;;;;;;29.60;27.60;;;28.82;25.23;101383.66;12253635;19;20336;-84
2023/06/12 17:30:02;;;;;;;;;;;29.50;28.20;;;28.78;25.25;101386.91;12249819;19;19918;-84
2023/06/12 17:34:04;;;;;;;;;;;29.40;27.90;;;28.73;24.91;101384.75;12251455;19;19918;-85
2023/06/12 17:38:05;;;;;;;;;;;29.40;28.00;;;28.77;25.09;101396.81;12248829;19;19919;-85
2023/06/12 17:42:07;;;;;;;;;;;29.30;28.20;;;28.64;25.42;101384.03;12251150;19;20281;-85
2023/06/12 17:46:08;;;;;;;;;;;29.20;28.20;;;28.66;25.50;101394.63;12248861;19;19918;-85
2023/06/12 17:50:10;;;;;;;;;;;29.20;27.70;;;28.58;25.22;101392.88;12250510;19;19922;-85
2023/06/12 17:54:11;;;;;;;;;;;29.20;28.00;;;28.38;25.25;101367.53;12244619;19;20137;-85
2023/06/12 17:58:13;;;;;;;;;;;29.10;28.30;;;28.45;25.23;101387.31;12248205;19;19915;-85
2023/06/12 18:02:14;;;;;;;;;;;29.00;28.00;;;28.41;25.33;101399.44;12250073;19;19922;-85
2023/06/12 18:06:16;;;;;;;;;;;28.90;28.10;;;28.14;25.32;101352.53;12250296;19;19931;-85
2023/06/12 18:10:17;;;;;;;;;;;28.90;28.10;;;28.26;25.36;101382.47;12247233;19;19911;-85